Quick Links (Output Below):   Max & Min Temps   /   Climate Reports   /   Zone Forecasts
River Forecasts   /   Forestry Forecasts   /   Aviation Forecasts   /   Radars   /   Features

Terminal Aerodrome Forecast (Pine Bluff)

Pick a Site:
Arkadelphia | El Dorado | Fayetteville | Fort Smith | Harrison | Highfill | Hot Springs | Jonesboro
Little Rock | Monticello | Mountain Home | Pine Bluff | Texarkana
 Forecast 

KPBF 282330Z 2900/2924 04006KT P6SM SCT250
     FM291400 04007KT P6SM SCT250=


 Latest METARs (Observations) 
How to Decode METARs
03Z KPBF 290253Z AUTO 00000KT 10SM CLR 24/23 A3003 RMK AO2 SLP166
         T02440228 53009 TSNO
         
02Z KPBF 290153Z AUTO 00000KT 10SM CLR 26/22 A3002 RMK AO2 SLP163
         T02610222 TSNO
         
01Z KPBF 290053Z AUTO 08003KT 10SM CLR 29/23 A3001 RMK AO2 SLP158
         T02890228 TSNO
         
00Z KPBF 282353Z AUTO 04005KT 10SM CLR 31/21 A3000 RMK AO2 SLP156
         T03060211 10317 20283 55005 TSNO
         
***** Today's Observations (Above) *****


23Z KPBF 282253Z AUTO 03008KT 10SM CLR 31/21 A3000 RMK AO2 SLP156
         T03110206 TSNO
         
22Z KPBF 282153Z AUTO 05008KT 10SM CLR 32/21 A3000 RMK AO2 SLP157
         T03170211 TSNO
         
21Z KPBF 282053Z AUTO 05010KT 10SM CLR 31/21 A3002 RMK AO2 SLP161
         T03110211 56022 TSNO
         
20Z KPBF 281953Z AUTO 05008KT 030V100 10SM FEW034 31/23 A3003 RMK AO2
         SLP166 T03060228 TSNO
         
19Z KPBF 281853Z AUTO 05009KT 10SM FEW030 SCT042 30/23 A3006 RMK AO2
         SLP177 T03000228 TSNO
         
18Z KPBF 281753Z AUTO 02008KT 10SM BKN025 BKN032 29/23 A3008 RMK AO2
         SLP183 T02890228 10294 20233 57002 TSNO
         
***** Yesterday's Observations (Above) *****


Back to Main Page
http://www.srh.noaa.gov/lzk/qfcst.php

USA.gov is the U.S. government's official web portal to all federal, state and local government web resources and services.